Strona główna
METAR-TAF:

METAR-TAF

Lotnisko :

Port lotniczy Guernsey

Guernsey,

Szerokość geograficzna: 49-26N, Długość geograficzna: 002-36W, wysokość: 102 m

Aktualna obserwacja pogody

Raport powstał 49 minut temu, godzina 05:50 UTC
Wiatr 9 kt od północny wschód
Temperatura 14°C
Wilgotność 88%
Ciśnienie 1019 hPa
Widzialność 10 km lub więcej
Brak chmur poniżej 1500 m i brak chmur cumulonimbus

METAR: EGJB 010550Z 05009KT CAVOK 14/12 Q1019

czas: 07:39 (06:39 UTC)

Prognoza

Raport powstał 1 godzina i 42 minut temu, godzina 04:57 UTC
Prognoza ważna od 01 godzina 06 UTC do 01 godzina 15 UTC
Wiatr 10 kt od północny wschód
Widzialność 10 km lub więcej
Brak chmur poniżej 1500 m i brak chmur cumulonimbus

TAF: EGJB 010457Z 0106/0115 05010KT CAVOK

Obserwacja i prognoza pogody dla ponad 4000 lotnisk (raport METAR i TAF).

Dostępne stacje oznaczono żółtymi i czerwonymi punktami na mapie.

Najedź kursorem aby zobaczyć nazwę stacji.

Kliknij aby zobaczyć obserwacje i prognozy pogody.

Aby zmienić mapę: kliknij na zielony przycisk z czarnym krzyżykiem, aby powiększyć; na zielony przycisk z myślnikiem, aby pomniejszyć; na zielone strzałki, aby przejść do map sąsiednich.


METAR-TAF: